Time;durP1;ratioP1;P1;durP2;ratioP2;P2;SDS_P1;SDS_P2;PMS_P1;PMS_P2;Temp;Humidity;BMP_temperature;BMP_pressure;BME280_temperature;BME280_humidity;BME280_pressure;Samples;Min_cycle;Max_cycle;Signal;HPM_P1;HPM_P2
2022/01/19 00:01:00;;;;;;;;;;;3.70;92.00;;;;;;5000388;28;19964;-89
2022/01/19 00:03:26;;;;;;;;;;;3.70;92.00;;;;;;4978579;28;19913;-89
2022/01/19 00:05:51;;;;;;;;;;;3.70;92.00;;;;;;4992334;28;20353;-89
2022/01/19 00:08:20;;;;;;;;;;;3.70;92.10;;;;;;4981898;28;19920;-89
2022/01/19 00:10:46;;;;;;;;;;;3.70;92.10;;;;;;4981003;28;19914;-89
2022/01/19 00:13:12;;;;;;;;;;;3.60;92.10;;;;;;5001636;28;20009;-87
2022/01/19 00:15:38;;;;;;;;;;;3.60;92.00;;;;;;4987192;28;20016;-87
2022/01/19 00:18:03;;;;;;;;;;;3.60;92.00;;;;;;4984364;28;20005;-87
2022/01/19 00:20:31;;;;;;;;;;;3.60;92.00;;;;;;4983318;28;19914;-87
2022/01/19 00:22:57;;;;;;;;;;;3.50;92.00;;;;;;4990161;28;19948;-87
2022/01/19 00:25:22;;;;;;;;;;;3.50;92.00;;;;;;4982679;28;19918;-87
2022/01/19 00:27:48;;;;;;;;;;;3.50;92.00;;;;;;4980962;28;20016;-89
2022/01/19 00:30:13;;;;;;;;;;;3.50;92.10;;;;;;4990342;28;19914;-89
2022/01/19 00:32:39;;;;;;;;;;;3.50;92.10;;;;;;4969728;28;19914;-89
2022/01/19 00:35:05;;;;;;;;;;;3.50;92.10;;;;;;4983791;28;19936;-89
2022/01/19 00:37:31;;;;;;;;;;;3.40;92.10;;;;;;4967117;28;19926;-89
2022/01/19 00:39:57;;;;;;;;;;;3.40;92.10;;;;;;4983552;28;19925;-87
2022/01/19 00:42:22;;;;;;;;;;;3.50;92.20;;;;;;4995965;28;19922;-87
2022/01/19 00:44:48;;;;;;;;;;;3.40;92.20;;;;;;4998265;28;20204;-86
2022/01/19 00:47:14;;;;;;;;;;;3.40;92.20;;;;;;4984299;28;20371;-87
2022/01/19 00:49:42;;;;;;;;;;;3.40;92.20;;;;;;4981972;28;19913;-87
2022/01/19 00:52:08;;;;;;;;;;;3.40;92.10;;;;;;4979360;28;19971;-87
2022/01/19 00:54:33;;;;;;;;;;;3.30;92.10;;;;;;4981177;28;19922;-87
2022/01/19 00:56:59;;;;;;;;;;;3.30;92.10;;;;;;4981878;28;20413;-87
2022/01/19 00:59:24;;;;;;;;;;;3.30;92.20;;;;;;4977674;28;20257;-87
2022/01/19 01:01:50;;;;;;;;;;;3.30;92.20;;;;;;4976759;28;19918;-87
2022/01/19 01:04:15;;;;;;;;;;;3.30;92.20;;;;;;4999632;28;19922;-87
2022/01/19 01:06:41;;;;;;;;;;;3.30;92.30;;;;;;4991032;28;21408;-86
2022/01/19 01:09:06;;;;;;;;;;;3.30;92.40;;;;;;4991101;28;20282;-87
2022/01/19 01:11:36;;;;;;;;;;;3.30;92.40;;;;;;4996393;28;20392;-87
2022/01/19 01:16:40;;;;;;;;;;;3.30;92.50;;;;;;4987357;28;19914;-87
2022/01/19 01:19:08;;;;;;;;;;;3.30;92.50;;;;;;4982267;28;19930;-87
2022/01/19 01:21:34;;;;;;;;;;;3.30;92.50;;;;;;4981251;28;19936;-86
2022/01/19 01:24:00;;;;;;;;;;;3.30;92.50;;;;;;4974181;28;19922;-86
2022/01/19 01:26:25;;;;;;;;;;;3.30;92.50;;;;;;4981243;28;19924;-86
2022/01/19 01:28:51;;;;;;;;;;;3.30;92.50;;;;;;4981677;28;19924;-87
2022/01/19 01:31:16;;;;;;;;;;;3.30;92.50;;;;;;4996567;28;19947;-87
2022/01/19 01:33:42;;;;;;;;;;;3.30;92.50;;;;;;4989312;28;20201;-87
2022/01/19 01:36:08;;;;;;;;;;;3.20;92.40;;;;;;4979497;28;19925;-87
2022/01/19 01:38:33;;;;;;;;;;;3.20;92.50;;;;;;4991347;28;20114;-87
2022/01/19 01:40:59;;;;;;;;;;;3.20;92.50;;;;;;4973048;28;19913;-87
2022/01/19 01:43:25;;;;;;;;;;;3.20;92.60;;;;;;4989195;28;19917;-87
2022/01/19 01:45:54;;;;;;;;;;;3.20;92.60;;;;;;4994118;28;20539;-87
2022/01/19 01:48:23;;;;;;;;;;;3.30;92.70;;;;;;4968309;28;19913;-87
2022/01/19 01:53:35;;;;;;;;;;;3.30;92.70;;;;;;4988864;28;20026;-86
2022/01/19 01:56:07;;;;;;;;;;;3.30;92.70;;;;;;4969674;28;20228;-86
2022/01/19 01:58:37;;;;;;;;;;;3.30;92.70;;;;;;4972271;28;19919;-87
2022/01/19 02:01:04;;;;;;;;;;;3.30;92.70;;;;;;4977778;28;19913;-86
2022/01/19 02:03:36;;;;;;;;;;;3.30;92.70;;;;;;4963248;28;19921;-86
2022/01/19 02:08:38;;;;;;;;;;;3.20;92.70;;;;;;4989784;28;19944;-86
2022/01/19 02:16:33;;;;;;;;;;;3.30;92.80;;;;;;4996262;28;19964;-85
2022/01/19 02:24:20;;;;;;;;;;;3.20;92.70;;;;;;5000141;28;19959;-85
2022/01/19 02:30:07;;;;;;;;;;;3.20;92.70;;;;;;4996529;28;19914;-85
2022/01/19 02:40:28;;;;;;;;;;;3.10;92.70;;;;;;4989189;28;20213;-86
2022/01/19 02:43:06;;;;;;;;;;;3.10;92.70;;;;;;4992152;28;20362;-86
2022/01/19 02:51:01;;;;;;;;;;;3.10;92.80;;;;;;5002499;28;19972;-86
2022/01/19 02:53:26;;;;;;;;;;;3.10;92.90;;;;;;4973834;28;19914;-86
2022/01/19 02:55:52;;;;;;;;;;;3.10;92.90;;;;;;4982076;28;19964;-86
2022/01/19 02:58:21;;;;;;;;;;;3.10;92.90;;;;;;5007199;28;19936;-86
2022/01/19 03:08:43;;;;;;;;;;;3.20;92.90;;;;;;5002948;28;20074;-86
2022/01/19 03:09:12;;;;;;;;;;;3.10;92.90;;;;;;4998097;28;19936;-86
2022/01/19 03:11:38;;;;;;;;;;;3.10;92.90;;;;;;4981930;28;20457;-86
2022/01/19 03:14:07;;;;;;;;;;;3.10;92.90;;;;;;4971254;28;19921;-86
2022/01/19 03:16:33;;;;;;;;;;;3.10;92.90;;;;;;4978874;28;20382;-86
2022/01/19 03:18:58;;;;;;;;;;;3.10;93.00;;;;;;4984292;28;19968;-86
2022/01/19 03:21:24;;;;;;;;;;;3.10;92.90;;;;;;4989791;28;20374;-86
2022/01/19 03:23:50;;;;;;;;;;;3.10;93.00;;;;;;4978702;28;20398;-86
2022/01/19 03:26:15;;;;;;;;;;;3.10;93.00;;;;;;5000688;28;20000;-86
2022/01/19 03:28:41;;;;;;;;;;;3.10;93.00;;;;;;4971375;28;19922;-86
2022/01/19 03:31:06;;;;;;;;;;;3.10;92.90;;;;;;4976024;28;19956;-86
2022/01/19 03:33:32;;;;;;;;;;;3.10;92.90;;;;;;4997911;28;19917;-86
2022/01/19 03:35:57;;;;;;;;;;;3.10;92.90;;;;;;4999509;28;20275;-86
2022/01/19 03:38:23;;;;;;;;;;;3.00;92.90;;;;;;4968336;28;20365;-86
2022/01/19 03:40:49;;;;;;;;;;;3.00;92.90;;;;;;4980282;28;20422;-86
2022/01/19 03:43:14;;;;;;;;;;;3.00;92.90;;;;;;4978577;28;19957;-86
2022/01/19 03:45:49;;;;;;;;;;;3.00;92.90;;;;;;4970803;28;20005;-86
2022/01/19 03:50:40;;;;;;;;;;;3.00;93.10;;;;;;4996187;28;20466;-86
2022/01/19 03:53:05;;;;;;;;;;;3.00;93.10;;;;;;4971914;28;20228;-86
2022/01/19 03:55:31;;;;;;;;;;;3.00;93.50;;;;;;4980756;28;20333;-86
2022/01/19 03:57:56;;;;;;;;;;;3.00;93.30;;;;;;4984593;28;19971;-86
2022/01/19 04:00:22;;;;;;;;;;;3.10;93.40;;;;;;4972433;28;19919;-86
2022/01/19 04:02:48;;;;;;;;;;;3.10;93.50;;;;;;4988016;28;20527;-86
2022/01/19 04:05:23;;;;;;;;;;;3.20;93.60;;;;;;5000826;28;20401;-86
2022/01/19 04:07:49;;;;;;;;;;;3.20;93.70;;;;;;4991714;28;19944;-86
2022/01/19 04:10:15;;;;;;;;;;;3.30;93.80;;;;;;4974075;28;19914;-86
2022/01/19 04:13:07;;;;;;;;;;;3.40;93.90;;;;;;4992725;28;19924;-86
2022/01/19 04:15:32;;;;;;;;;;;3.40;94.00;;;;;;4967017;28;20127;-86
2022/01/19 04:17:58;;;;;;;;;;;3.50;94.10;;;;;;5008351;28;19929;-86
2022/01/19 04:20:26;;;;;;;;;;;3.60;94.20;;;;;;4981468;28;19929;-85
2022/01/19 04:22:51;;;;;;;;;;;3.60;94.30;;;;;;4981888;28;19917;-85
2022/01/19 04:25:17;;;;;;;;;;;3.70;94.40;;;;;;4961505;28;19929;-86
2022/01/19 04:27:43;;;;;;;;;;;3.80;94.50;;;;;;4984528;28;20082;-86
2022/01/19 04:30:12;;;;;;;;;;;3.80;94.50;;;;;;4977509;28;19914;-85
2022/01/19 04:35:09;;;;;;;;;;;4.00;94.70;;;;;;4999078;28;19928;-85
2022/01/19 04:48:48;;;;;;;;;;;4.30;95.00;;;;;;5004103;28;19921;-85
2022/01/19 05:04:46;;;;;;;;;;;4.60;95.10;;;;;;5001821;28;20297;-86
2022/01/19 05:07:18;;;;;;;;;;;4.60;95.10;;;;;;5000568;28;19928;-86
2022/01/19 05:15:12;;;;;;;;;;;4.70;95.20;;;;;;4999509;28;19917;-85
2022/01/19 05:17:38;;;;;;;;;;;4.70;95.20;;;;;;4979725;28;20011;-85
2022/01/19 05:20:04;;;;;;;;;;;4.80;95.30;;;;;;4984035;28;19922;-85
2022/01/19 05:22:30;;;;;;;;;;;4.80;95.30;;;;;;4989137;28;20457;-85
2022/01/19 05:24:56;;;;;;;;;;;4.80;95.30;;;;;;4980461;28;19921;-86
2022/01/19 05:27:22;;;;;;;;;;;4.80;95.30;;;;;;4969411;28;19914;-85
2022/01/19 05:29:48;;;;;;;;;;;4.90;95.40;;;;;;4997219;28;20336;-87
2022/01/19 05:32:14;;;;;;;;;;;4.90;95.40;;;;;;4991788;28;19914;-88
2022/01/19 05:34:39;;;;;;;;;;;4.90;95.40;;;;;;5002496;28;20082;-88
2022/01/19 05:37:06;;;;;;;;;;;5.00;95.50;;;;;;4979924;28;20587;-87
2022/01/19 05:39:31;;;;;;;;;;;5.00;95.50;;;;;;4999832;28;20029;-86
2022/01/19 05:41:57;;;;;;;;;;;5.10;95.60;;;;;;4998940;28;20012;-86
2022/01/19 05:44:22;;;;;;;;;;;5.10;95.60;;;;;;4995686;28;20043;-88
2022/01/19 05:46:48;;;;;;;;;;;5.10;95.60;;;;;;4978482;28;20593;-88
2022/01/19 05:49:14;;;;;;;;;;;5.20;95.60;;;;;;5016316;28;19920;-88
2022/01/19 05:51:39;;;;;;;;;;;5.20;95.60;;;;;;4980191;28;19996;-88
2022/01/19 05:54:06;;;;;;;;;;;5.20;95.60;;;;;;4984803;28;19914;-88
2022/01/19 05:56:32;;;;;;;;;;;5.30;95.70;;;;;;4968644;28;20406;-88
2022/01/19 05:58:57;;;;;;;;;;;5.30;95.70;;;;;;4988461;28;20044;-86
2022/01/19 06:01:23;;;;;;;;;;;5.30;95.70;;;;;;4998476;28;19917;-88
2022/01/19 06:03:50;;;;;;;;;;;5.40;95.80;;;;;;4971749;28;20309;-88
2022/01/19 06:06:17;;;;;;;;;;;5.40;95.80;;;;;;5006132;28;19921;-88
2022/01/19 06:08:44;;;;;;;;;;;5.50;95.80;;;;;;4988738;28;20455;-88
2022/01/19 06:11:10;;;;;;;;;;;5.40;95.70;;;;;;5003449;28;19914;-88
2022/01/19 06:13:36;;;;;;;;;;;5.50;95.80;;;;;;4982154;28;20142;-88
2022/01/19 06:16:01;;;;;;;;;;;5.50;95.70;;;;;;5001633;28;19914;-85
2022/01/19 06:18:27;;;;;;;;;;;5.50;95.80;;;;;;4997393;28;19921;-86
2022/01/19 06:20:53;;;;;;;;;;;5.50;95.70;;;;;;4995039;28;19925;-86
2022/01/19 06:23:18;;;;;;;;;;;5.50;95.70;;;;;;4993625;28;20260;-86
2022/01/19 06:25:44;;;;;;;;;;;5.60;95.80;;;;;;5001646;28;20157;-85
2022/01/19 06:28:09;;;;;;;;;;;5.60;95.80;;;;;;4980581;28;20197;-85
2022/01/19 06:30:35;;;;;;;;;;;5.60;95.80;;;;;;4984625;28;19921;-86
2022/01/19 06:33:01;;;;;;;;;;;5.60;95.80;;;;;;4984239;28;19960;-86
2022/01/19 06:35:27;;;;;;;;;;;5.60;95.80;;;;;;4990192;28;20298;-86
2022/01/19 06:37:52;;;;;;;;;;;5.70;95.80;;;;;;4979123;28;19977;-86
2022/01/19 06:40:20;;;;;;;;;;;5.70;95.80;;;;;;4999118;28;20207;-87
2022/01/19 06:42:46;;;;;;;;;;;5.70;95.90;;;;;;4999179;28;20006;-86
2022/01/19 06:45:12;;;;;;;;;;;5.70;95.90;;;;;;4970997;28;19927;-86
2022/01/19 06:47:38;;;;;;;;;;;5.80;95.90;;;;;;4978593;28;20514;-86
2022/01/19 06:50:05;;;;;;;;;;;5.80;95.90;;;;;;5011407;28;20432;-86
2022/01/19 06:52:31;;;;;;;;;;;5.80;96.00;;;;;;5007027;28;19952;-86
2022/01/19 06:54:57;;;;;;;;;;;5.80;95.90;;;;;;4982820;28;19913;-86
2022/01/19 06:57:22;;;;;;;;;;;5.90;96.00;;;;;;4981399;28;19918;-86
2022/01/19 06:59:51;;;;;;;;;;;5.90;96.10;;;;;;4969030;28;19975;-85
2022/01/19 07:02:17;;;;;;;;;;;5.90;96.00;;;;;;4979257;28;19918;-86
2022/01/19 07:04:48;;;;;;;;;;;5.90;96.00;;;;;;4980536;28;20118;-86
2022/01/19 07:07:14;;;;;;;;;;;6.00;96.00;;;;;;4975889;28;20012;-86
2022/01/19 07:09:39;;;;;;;;;;;6.00;95.90;;;;;;4984188;28;20158;-86
2022/01/19 07:12:05;;;;;;;;;;;6.00;95.90;;;;;;4979027;28;20008;-86
2022/01/19 07:14:30;;;;;;;;;;;6.00;95.90;;;;;;4980450;28;20052;-86
2022/01/19 07:16:56;;;;;;;;;;;6.00;95.90;;;;;;4999066;28;19909;-86
2022/01/19 07:19:21;;;;;;;;;;;6.00;95.90;;;;;;4975473;28;19968;-86
2022/01/19 07:21:47;;;;;;;;;;;6.00;95.90;;;;;;4980988;28;19913;-86
2022/01/19 07:24:14;;;;;;;;;;;6.00;95.80;;;;;;4978105;28;19918;-86
2022/01/19 07:26:40;;;;;;;;;;;6.00;95.80;;;;;;4984127;28;20016;-86
2022/01/19 07:29:05;;;;;;;;;;;6.00;95.80;;;;;;4979960;28;20463;-86
2022/01/19 07:31:31;;;;;;;;;;;6.00;95.80;;;;;;4976409;28;19918;-86
2022/01/19 07:33:57;;;;;;;;;;;6.00;95.80;;;;;;5000332;28;19961;-86
2022/01/19 07:36:22;;;;;;;;;;;6.00;95.80;;;;;;4975746;28;19921;-86
2022/01/19 07:38:48;;;;;;;;;;;6.00;95.80;;;;;;4982174;28;20356;-86
2022/01/19 07:41:13;;;;;;;;;;;6.00;95.80;;;;;;4981605;28;20044;-86
2022/01/19 07:43:39;;;;;;;;;;;6.10;95.80;;;;;;4996146;28;20653;-86
2022/01/19 07:46:05;;;;;;;;;;;6.10;95.70;;;;;;4979772;28;19914;-86
2022/01/19 07:48:30;;;;;;;;;;;6.10;95.70;;;;;;4980897;28;19943;-86
2022/01/19 07:50:56;;;;;;;;;;;6.10;95.80;;;;;;4984040;28;20379;-86
2022/01/19 07:53:21;;;;;;;;;;;6.10;95.80;;;;;;4980213;28;19968;-86
2022/01/19 07:55:49;;;;;;;;;;;6.10;95.80;;;;;;4993464;28;20251;-86
2022/01/19 07:58:14;;;;;;;;;;;6.10;95.70;;;;;;4976011;28;19929;-86
2022/01/19 08:00:42;;;;;;;;;;;6.10;95.80;;;;;;4966258;28;19914;-86
2022/01/19 08:03:10;;;;;;;;;;;6.10;95.70;;;;;;4964769;28;20279;-86
2022/01/19 08:05:36;;;;;;;;;;;6.10;96.00;;;;;;4967005;28;19917;-86
2022/01/19 08:08:02;;;;;;;;;;;6.20;95.80;;;;;;4972048;28;20019;-86
2022/01/19 08:10:29;;;;;;;;;;;6.20;95.80;;;;;;4994062;28;20344;-86
2022/01/19 08:12:55;;;;;;;;;;;6.20;95.70;;;;;;4980377;28;20314;-86
2022/01/19 08:15:21;;;;;;;;;;;6.20;95.70;;;;;;4985537;28;19937;-86
2022/01/19 08:17:46;;;;;;;;;;;6.20;95.70;;;;;;4952722;28;20003;-86
2022/01/19 08:20:12;;;;;;;;;;;6.20;95.80;;;;;;5011648;28;20432;-86
2022/01/19 08:22:38;;;;;;;;;;;6.20;95.80;;;;;;4988826;28;20632;-86
2022/01/19 08:25:03;;;;;;;;;;;6.20;95.80;;;;;;4972982;28;19925;-86
2022/01/19 08:27:29;;;;;;;;;;;6.20;95.70;;;;;;4964095;28;19968;-86
2022/01/19 08:29:57;;;;;;;;;;;6.30;95.80;;;;;;4990848;28;20070;-86
2022/01/19 08:32:23;;;;;;;;;;;6.30;95.80;;;;;;4996553;28;19917;-86
2022/01/19 08:34:49;;;;;;;;;;;6.30;95.80;;;;;;4981033;28;19926;-86
2022/01/19 08:37:15;;;;;;;;;;;6.30;95.80;;;;;;4989328;28;19922;-86
2022/01/19 08:39:42;;;;;;;;;;;6.30;95.80;;;;;;4975454;28;20448;-86
2022/01/19 08:42:08;;;;;;;;;;;6.30;95.80;;;;;;4977727;28;19956;-86
2022/01/19 08:44:34;;;;;;;;;;;6.30;95.80;;;;;;4962863;28;19949;-86
2022/01/19 08:46:59;;;;;;;;;;;6.30;95.80;;;;;;4987230;28;19972;-86
2022/01/19 08:49:25;;;;;;;;;;;6.40;95.90;;;;;;4969196;28;19913;-86
2022/01/19 08:51:50;;;;;;;;;;;6.40;95.90;;;;;;4986781;28;20168;-86
2022/01/19 08:54:16;;;;;;;;;;;6.40;95.90;;;;;;4988735;28;19971;-86
2022/01/19 08:56:41;;;;;;;;;;;6.40;95.90;;;;;;4990762;28;20424;-86
2022/01/19 08:59:07;;;;;;;;;;;6.40;96.00;;;;;;4985523;28;19917;-86
2022/01/19 09:01:33;;;;;;;;;;;6.40;96.20;;;;;;4976966;28;19957;-86
2022/01/19 09:03:58;;;;;;;;;;;6.40;96.00;;;;;;4974697;28;20105;-86
2022/01/19 09:06:24;;;;;;;;;;;6.40;96.00;;;;;;4985591;28;20009;-86
2022/01/19 09:08:50;;;;;;;;;;;6.40;96.00;;;;;;4998513;28;20197;-86
2022/01/19 09:11:16;;;;;;;;;;;6.50;96.00;;;;;;5005378;28;19995;-86
2022/01/19 09:13:42;;;;;;;;;;;6.50;96.00;;;;;;4968528;28;20057;-86
2022/01/19 09:16:07;;;;;;;;;;;6.50;96.00;;;;;;4979219;28;20285;-86
2022/01/19 09:18:33;;;;;;;;;;;6.50;96.00;;;;;;4974393;28;19970;-86
2022/01/19 09:20:58;;;;;;;;;;;6.50;96.00;;;;;;4977877;28;19944;-86
2022/01/19 09:23:24;;;;;;;;;;;6.50;96.00;;;;;;4979628;28;20031;-86
2022/01/19 09:25:49;;;;;;;;;;;6.60;95.90;;;;;;4983257;28;20280;-86
2022/01/19 09:28:15;;;;;;;;;;;6.60;95.90;;;;;;4973421;28;20399;-86
2022/01/19 09:30:41;;;;;;;;;;;6.60;95.90;;;;;;4966368;28;19913;-86
2022/01/19 09:33:11;;;;;;;;;;;6.60;95.90;;;;;;4993271;28;19967;-86
2022/01/19 09:38:17;;;;;;;;;;;6.70;95.90;;;;;;4997531;28;19917;-86
2022/01/19 09:40:43;;;;;;;;;;;6.60;95.90;;;;;;4970195;28;19954;-86
2022/01/19 09:43:09;;;;;;;;;;;6.70;95.90;;;;;;4985119;28;19914;-86
2022/01/19 09:45:35;;;;;;;;;;;6.70;95.90;;;;;;4979747;28;19967;-86
2022/01/19 09:48:00;;;;;;;;;;;6.70;95.80;;;;;;4977969;28;20138;-86
2022/01/19 09:50:26;;;;;;;;;;;6.70;95.80;;;;;;4990487;28;20359;-86
2022/01/19 09:52:52;;;;;;;;;;;6.70;95.80;;;;;;4962977;28;20066;-86
2022/01/19 09:55:17;;;;;;;;;;;6.70;95.80;;;;;;4987034;28;19921;-86
2022/01/19 09:57:43;;;;;;;;;;;6.80;95.80;;;;;;4975813;28;20322;-86
2022/01/19 10:00:08;;;;;;;;;;;6.80;95.80;;;;;;4977845;28;19921;-86
2022/01/19 10:02:34;;;;;;;;;;;6.80;95.80;;;;;;4995811;28;19920;-86
2022/01/19 10:05:05;;;;;;;;;;;6.80;95.80;;;;;;4990139;28;20516;-86
2022/01/19 10:07:30;;;;;;;;;;;6.80;95.90;;;;;;4986841;28;19913;-86
2022/01/19 10:09:57;;;;;;;;;;;6.80;95.80;;;;;;4982596;28;19983;-85
2022/01/19 10:18:25;;;;;;;;;;;6.80;95.80;;;;;;4996405;28;20064;-86
2022/01/19 10:21:08;;;;;;;;;;;6.80;95.80;;;;;;4983242;28;19932;-86
2022/01/19 10:23:39;;;;;;;;;;;6.80;95.80;;;;;;4969022;28;19945;-86
2022/01/19 10:26:09;;;;;;;;;;;6.80;95.90;;;;;;4963093;28;20059;-86
2022/01/19 10:29:13;;;;;;;;;;;6.90;95.90;;;;;;4964744;28;19921;-86
2022/01/19 10:31:40;;;;;;;;;;;6.90;95.80;;;;;;4906936;29;19914;-86
2022/01/19 10:34:10;;;;;;;;;;;6.90;95.80;;;;;;4916011;29;20028;-85
2022/01/19 10:36:48;;;;;;;;;;;6.90;95.80;;;;;;4962077;28;19928;-86
2022/01/19 10:39:15;;;;;;;;;;;6.90;95.80;;;;;;4992226;28;19917;-86
2022/01/19 10:42:00;;;;;;;;;;;6.90;95.80;;;;;;4993834;28;19913;-86
2022/01/19 10:44:33;;;;;;;;;;;7.00;95.80;;;;;;4989436;28;19921;-86
2022/01/19 10:46:59;;;;;;;;;;;7.00;95.80;;;;;;4970060;28;20453;-86
2022/01/19 10:49:25;;;;;;;;;;;7.10;95.70;;;;;;4979380;28;19914;-85
2022/01/19 10:51:56;;;;;;;;;;;7.10;95.90;;;;;;4979382;28;20566;-86
2022/01/19 10:54:22;;;;;;;;;;;7.10;95.80;;;;;;5008931;28;20008;-86
2022/01/19 10:56:54;;;;;;;;;;;7.20;95.70;;;;;;4975671;28;20350;-85
2022/01/19 10:59:25;;;;;;;;;;;7.20;95.80;;;;;;5013300;28;19937;-86
2022/01/19 11:01:56;;;;;;;;;;;7.30;95.70;;;;;;4964814;28;19921;-86
2022/01/19 11:04:23;;;;;;;;;;;7.20;95.40;;;;;;4997789;28;19913;-86
2022/01/19 11:06:50;;;;;;;;;;;7.30;95.50;;;;;;4984718;28;20299;-87
2022/01/19 11:09:19;;;;;;;;;;;7.30;95.50;;;;;;4978101;28;20013;-87
2022/01/19 11:11:44;;;;;;;;;;;7.30;95.40;;;;;;4985118;28;20374;-86
2022/01/19 11:14:13;;;;;;;;;;;7.40;95.40;;;;;;5004315;28;19920;-87
2022/01/19 11:16:39;;;;;;;;;;;7.40;95.30;;;;;;4974242;28;19913;-84
2022/01/19 11:19:05;;;;;;;;;;;7.40;94.90;;;;;;4989975;28;19917;-86
2022/01/19 11:21:35;;;;;;;;;;;7.40;94.60;;;;;;4980105;28;19917;-86
2022/01/19 11:24:05;;;;;;;;;;;7.40;94.70;;;;;;5000791;28;19967;-86
2022/01/19 11:26:31;;;;;;;;;;;7.40;94.80;;;;;;4978474;28;20576;-86
2022/01/19 11:29:11;;;;;;;;;;;7.40;94.70;;;;;;4977641;28;19913;-86
2022/01/19 11:31:37;;;;;;;;;;;7.40;94.60;;;;;;4996822;28;20008;-86
2022/01/19 11:34:03;;;;;;;;;;;7.40;94.60;;;;;;4988398;28;20009;-86
2022/01/19 11:36:33;;;;;;;;;;;7.40;94.20;;;;;;4965217;28;19922;-86
2022/01/19 11:39:22;;;;;;;;;;;7.40;94.40;;;;;;4999661;28;19963;-87
2022/01/19 11:41:50;;;;;;;;;;;7.40;94.60;;;;;;4986487;28;20000;-86
2022/01/19 11:44:37;;;;;;;;;;;7.30;94.70;;;;;;4964645;28;20318;-87
2022/01/19 11:47:09;;;;;;;;;;;7.30;94.90;;;;;;4990879;28;19924;-86
2022/01/19 11:49:57;;;;;;;;;;;7.40;94.90;;;;;;4981340;28;20003;-86
2022/01/19 11:52:27;;;;;;;;;;;7.40;94.70;;;;;;4980761;28;20213;-86
2022/01/19 11:55:09;;;;;;;;;;;7.30;94.70;;;;;;4985340;28;20221;-86
2022/01/19 11:57:35;;;;;;;;;;;7.40;94.70;;;;;;4982632;28;20041;-86
2022/01/19 12:00:05;;;;;;;;;;;7.30;94.80;;;;;;4968395;28;20422;-86
2022/01/19 12:02:36;;;;;;;;;;;7.30;94.80;;;;;;4972181;28;19926;-86
2022/01/19 12:05:13;;;;;;;;;;;7.40;94.90;;;;;;4980768;28;20218;-87
2022/01/19 12:07:39;;;;;;;;;;;7.40;94.70;;;;;;5003809;28;19964;-86
2022/01/19 12:10:06;;;;;;;;;;;7.40;94.70;;;;;;4974063;28;20750;-86
2022/01/19 12:12:37;;;;;;;;;;;7.40;94.80;;;;;;4976834;28;20306;-86
2022/01/19 12:15:07;;;;;;;;;;;7.40;94.90;;;;;;4949835;28;19929;-86
2022/01/19 12:17:52;;;;;;;;;;;7.50;95.20;;;;;;4979651;28;19999;-86
2022/01/19 12:20:37;;;;;;;;;;;7.50;95.20;;;;;;4969624;28;19956;-86
2022/01/19 12:23:21;;;;;;;;;;;7.60;95.30;;;;;;4980264;28;20280;-87
2022/01/19 12:25:53;;;;;;;;;;;7.60;95.20;;;;;;4974779;28;19961;-86
2022/01/19 12:28:38;;;;;;;;;;;7.70;95.00;;;;;;4973054;28;20003;-86
2022/01/19 12:31:39;;;;;;;;;;;7.80;94.90;;;;;;4964256;28;20054;-86
2022/01/19 12:34:05;;;;;;;;;;;7.80;94.10;;;;;;4914461;28;20268;-86
2022/01/19 12:36:39;;;;;;;;;;;7.90;94.40;;;;;;4948577;28;20297;-86
2022/01/19 12:39:24;;;;;;;;;;;7.90;94.50;;;;;;4978619;28;20003;-86
2022/01/19 12:41:58;;;;;;;;;;;8.00;94.60;;;;;;4989315;28;20367;-86
2022/01/19 12:44:42;;;;;;;;;;;8.00;94.40;;;;;;4995889;28;19918;-86
2022/01/19 12:47:27;;;;;;;;;;;8.00;94.00;;;;;;4989037;28;20620;-86
2022/01/19 12:49:53;;;;;;;;;;;8.00;94.10;;;;;;4976369;28;20004;-86
2022/01/19 12:52:19;;;;;;;;;;;8.00;94.20;;;;;;4969960;28;20409;-86
2022/01/19 12:54:45;;;;;;;;;;;8.00;94.20;;;;;;4989742;28;20410;-87
2022/01/19 12:57:15;;;;;;;;;;;8.00;94.50;;;;;;4987927;28;20118;-85
2022/01/19 12:59:41;;;;;;;;;;;8.00;94.40;;;;;;4986173;28;19918;-87
2022/01/19 13:02:07;;;;;;;;;;;8.00;94.50;;;;;;4981253;28;20594;-86
2022/01/19 13:04:33;;;;;;;;;;;8.00;94.60;;;;;;4979437;28;19924;-86
2022/01/19 13:07:16;;;;;;;;;;;8.00;94.30;;;;;;4971825;28;20460;-86
2022/01/19 13:10:05;;;;;;;;;;;8.10;94.60;;;;;;4983664;28;19918;-86
2022/01/19 13:12:37;;;;;;;;;;;8.10;94.70;;;;;;4993396;28;19996;-85
2022/01/19 13:15:03;;;;;;;;;;;8.10;94.70;;;;;;4979176;28;20468;-86
2022/01/19 13:17:46;;;;;;;;;;;8.10;94.60;;;;;;4969746;28;19922;-84
2022/01/19 13:20:22;;;;;;;;;;;8.10;94.60;;;;;;4963223;28;20204;-86
2022/01/19 13:22:47;;;;;;;;;;;8.10;94.70;;;;;;4966717;28;19914;-86
2022/01/19 13:25:33;;;;;;;;;;;8.10;94.50;;;;;;4964210;28;19918;-86
2022/01/19 13:28:00;;;;;;;;;;;8.20;94.60;;;;;;4984846;28;20322;-86
2022/01/19 13:30:27;;;;;;;;;;;8.10;94.10;;;;;;4991615;28;19928;-86
2022/01/19 13:32:53;;;;;;;;;;;8.10;94.50;;;;;;4964819;28;20559;-86
2022/01/19 13:35:19;;;;;;;;;;;8.20;94.60;;;;;;4977330;28;19917;-86
2022/01/19 13:37:46;;;;;;;;;;;8.20;94.70;;;;;;4979710;28;20326;-86
2022/01/19 13:40:16;;;;;;;;;;;8.10;94.70;;;;;;4963968;28;20205;-86
2022/01/19 13:42:43;;;;;;;;;;;8.10;94.60;;;;;;4991594;28;20056;-86
2022/01/19 13:45:19;;;;;;;;;;;8.10;94.60;;;;;;4992527;28;20107;-85
2022/01/19 13:48:04;;;;;;;;;;;8.10;94.50;;;;;;4969351;28;19913;-86
2022/01/19 13:50:30;;;;;;;;;;;8.10;94.10;;;;;;4995147;28;20359;-86
2022/01/19 13:52:55;;;;;;;;;;;8.10;94.40;;;;;;4983080;28;20444;-86
2022/01/19 13:55:22;;;;;;;;;;;8.10;94.20;;;;;;4958153;28;20313;-85
2022/01/19 13:57:47;;;;;;;;;;;8.10;94.40;;;;;;4974226;28;19949;-86
2022/01/19 14:00:15;;;;;;;;;;;8.10;94.60;;;;;;4986914;28;19984;-84
2022/01/19 14:02:52;;;;;;;;;;;8.10;94.00;;;;;;5001517;28;20519;-86
2022/01/19 14:05:17;;;;;;;;;;;8.10;93.30;;;;;;4963658;28;20364;-87
2022/01/19 14:07:46;;;;;;;;;;;8.10;93.60;;;;;;4989806;28;20004;-85
2022/01/19 14:10:12;;;;;;;;;;;8.10;93.50;;;;;;4975014;28;19918;-87
2022/01/19 14:12:37;;;;;;;;;;;8.00;93.50;;;;;;4989604;28;19925;-86
2022/01/19 14:15:06;;;;;;;;;;;8.00;93.80;;;;;;4978606;28;20812;-88
2022/01/19 14:17:34;;;;;;;;;;;8.00;93.60;;;;;;4973226;28;19932;-86
2022/01/19 14:20:00;;;;;;;;;;;8.00;94.00;;;;;;4995355;28;19967;-87
2022/01/19 14:22:35;;;;;;;;;;;8.10;94.10;;;;;;4969496;28;20069;-85
2022/01/19 14:25:03;;;;;;;;;;;8.10;94.20;;;;;;4971998;28;20374;-86
2022/01/19 14:27:30;;;;;;;;;;;8.00;94.20;;;;;;4969099;28;20279;-86
2022/01/19 14:30:06;;;;;;;;;;;8.10;94.30;;;;;;5004995;28;20040;-85
2022/01/19 14:32:51;;;;;;;;;;;8.10;94.00;;;;;;5001082;28;20381;-86
2022/01/19 14:35:28;;;;;;;;;;;8.10;93.70;;;;;;4981890;28;19921;-85
2022/01/19 14:37:54;;;;;;;;;;;8.10;93.60;;;;;;4987627;28;19927;-85
2022/01/19 14:40:19;;;;;;;;;;;8.10;94.00;;;;;;4973056;28;20449;-86
2022/01/19 14:42:48;;;;;;;;;;;8.10;94.00;;;;;;4971540;28;20374;-86
2022/01/19 14:45:20;;;;;;;;;;;8.10;94.00;;;;;;4986900;28;20101;-87
2022/01/19 14:47:45;;;;;;;;;;;8.10;94.00;;;;;;4980074;28;19954;-86
2022/01/19 14:50:23;;;;;;;;;;;8.10;93.80;;;;;;4972642;28;20284;-84
2022/01/19 14:52:50;;;;;;;;;;;8.10;94.10;;;;;;4997443;28;19919;-86
2022/01/19 14:55:20;;;;;;;;;;;8.10;94.20;;;;;;4965640;28;19921;-86
2022/01/19 14:57:47;;;;;;;;;;;8.10;94.20;;;;;;4986257;28;19920;-86
2022/01/19 15:00:14;;;;;;;;;;;8.10;94.60;;;;;;4991309;28;19947;-87
2022/01/19 15:02:39;;;;;;;;;;;8.10;94.10;;;;;;4972467;28;20041;-87
2022/01/19 15:05:05;;;;;;;;;;;8.10;94.10;;;;;;4977730;28;19914;-87
2022/01/19 15:07:30;;;;;;;;;;;8.10;94.10;;;;;;4987774;28;19921;-87
2022/01/19 15:09:56;;;;;;;;;;;8.20;94.20;;;;;;4972781;28;19921;-85
2022/01/19 15:12:22;;;;;;;;;;;8.20;94.10;;;;;;4979000;28;20280;-87
2022/01/19 15:14:47;;;;;;;;;;;8.20;94.20;;;;;;4976353;28;19922;-85
2022/01/19 15:17:13;;;;;;;;;;;8.20;94.50;;;;;;4992303;28;20242;-86
2022/01/19 15:19:38;;;;;;;;;;;8.20;94.50;;;;;;4996803;28;19921;-86
2022/01/19 15:22:04;;;;;;;;;;;8.20;94.40;;;;;;4993472;28;19921;-87
2022/01/19 15:24:29;;;;;;;;;;;8.20;94.40;;;;;;4971607;28;19952;-86
2022/01/19 15:26:55;;;;;;;;;;;8.20;94.30;;;;;;4971902;28;19914;-84
2022/01/19 15:29:20;;;;;;;;;;;8.20;94.50;;;;;;4976928;28;19928;-84
2022/01/19 15:31:48;;;;;;;;;;;8.20;93.80;;;;;;4992227;28;19925;-86
2022/01/19 15:34:13;;;;;;;;;;;8.20;94.00;;;;;;4992114;28;20022;-86
2022/01/19 15:36:39;;;;;;;;;;;8.20;94.20;;;;;;4996897;28;19925;-87
2022/01/19 15:39:07;;;;;;;;;;;8.20;94.30;;;;;;4972298;28;20142;-87
2022/01/19 15:41:33;;;;;;;;;;;8.20;94.30;;;;;;4990842;28;19913;-84
2022/01/19 15:43:58;;;;;;;;;;;8.20;94.20;;;;;;4964317;28;20274;-86
2022/01/19 15:46:24;;;;;;;;;;;8.20;94.20;;;;;;4963387;28;20299;-86
2022/01/19 15:48:50;;;;;;;;;;;8.20;94.30;;;;;;4991489;28;20390;-86
2022/01/19 15:51:15;;;;;;;;;;;8.20;94.30;;;;;;5009792;28;19921;-85
2022/01/19 15:53:41;;;;;;;;;;;8.20;94.50;;;;;;4994789;28;19913;-87
2022/01/19 15:56:06;;;;;;;;;;;8.20;94.40;;;;;;4965823;28;20027;-87
2022/01/19 15:58:32;;;;;;;;;;;8.10;94.50;;;;;;4977534;28;19922;-87
2022/01/19 16:00:57;;;;;;;;;;;8.10;94.50;;;;;;4978860;28;19925;-87